Time;durP1;ratioP1;P1;durP2;ratioP2;P2;SDS_P1;SDS_P2;PMS_P1;PMS_P2;Temp;Humidity;BMP_temperature;BMP_pressure;BME280_temperature;BME280_humidity;BME280_pressure;Samples;Min_cycle;Max_cycle;Signal;HPM_P1;HPM_P2
2022/12/17 13:06:47;;;;;;;;;;;-0.70;99.90;;;;;;5011945;28;19925;-79
2022/12/17 13:09:33;;;;;;;;;;;-0.70;99.90;;;;;;4994958;28;19925;-76
2022/12/17 13:12:20;;;;;;;;;;;-0.70;99.90;;;;;;4993355;28;19929;-79
2022/12/17 13:14:50;;;;;;;;;;;-0.80;99.90;;;;;;5007112;28;20024;-77
2022/12/17 13:17:30;;;;;;;;;;;-0.70;99.90;;;;;;4998143;28;19992;-77
2022/12/17 13:20:02;;;;;;;;;;;-0.60;99.90;;;;;;5005958;28;19925;-77
2022/12/17 13:22:29;;;;;;;;;;;-0.60;99.90;;;;;;4999324;28;19930;-79
2022/12/17 13:25:08;;;;;;;;;;;-0.60;99.90;;;;;;4991884;28;20024;-78
2022/12/17 13:27:36;;;;;;;;;;;-0.50;99.90;;;;;;4993048;28;19979;-79
2022/12/17 13:30:19;;;;;;;;;;;-0.60;99.90;;;;;;4997796;28;19952;-79
2022/12/17 13:32:50;;;;;;;;;;;-0.70;99.90;;;;;;5011378;28;19940;-78
2022/12/17 13:35:21;;;;;;;;;;;-0.80;99.90;;;;;;5008347;28;19925;-78
2022/12/17 13:37:52;;;;;;;;;;;-0.90;99.90;;;;;;4997052;28;19933;-79
2022/12/17 13:40:25;;;;;;;;;;;-1.00;99.90;;;;;;4996401;28;20533;-78
2022/12/17 13:42:52;;;;;;;;;;;-1.00;99.90;;;;;;4992428;28;20306;-77
2022/12/17 13:45:21;;;;;;;;;;;-1.10;99.90;;;;;;5009689;28;19934;-76
2022/12/17 13:47:54;;;;;;;;;;;-1.10;99.90;;;;;;4995059;28;19971;-77
2022/12/17 13:50:22;;;;;;;;;;;-1.10;99.90;;;;;;4995229;28;19932;-77
2022/12/17 13:52:51;;;;;;;;;;;-1.10;99.90;;;;;;4993786;28;19934;-78
2022/12/17 13:55:19;;;;;;;;;;;-1.10;99.90;;;;;;4993000;28;20016;-78
2022/12/17 13:57:47;;;;;;;;;;;-1.10;99.90;;;;;;4993615;28;19936;-77
2022/12/17 14:00:19;;;;;;;;;;;-1.10;99.90;;;;;;5011440;28;20395;-78
2022/12/17 14:02:47;;;;;;;;;;;-1.10;99.90;;;;;;5008006;28;19942;-77
2022/12/17 14:05:26;;;;;;;;;;;-1.10;99.90;;;;;;4989194;28;19940;-77
2022/12/17 14:07:54;;;;;;;;;;;-1.20;99.90;;;;;;4995898;28;19929;-77
2022/12/17 14:10:21;;;;;;;;;;;-1.20;99.90;;;;;;4987116;28;19930;-77
2022/12/17 14:12:48;;;;;;;;;;;-1.20;99.90;;;;;;5011248;28;20020;-77
2022/12/17 14:15:22;;;;;;;;;;;-1.30;99.90;;;;;;5011965;28;20386;-78
2022/12/17 14:17:49;;;;;;;;;;;-1.30;99.90;;;;;;5012953;28;19934;-78
2022/12/17 14:20:23;;;;;;;;;;;-1.30;99.90;;;;;;5013783;28;20008;-78
2022/12/17 14:23:15;;;;;;;;;;;-1.20;99.90;;;;;;4996378;28;19933;-78
2022/12/17 14:25:47;;;;;;;;;;;-1.20;99.90;;;;;;5017610;28;20440;-78
2022/12/17 14:28:21;;;;;;;;;;;-1.30;99.90;;;;;;4995508;28;19929;-78
2022/12/17 14:30:51;;;;;;;;;;;-1.30;99.90;;;;;;5001388;28;20039;-78
2022/12/17 14:33:26;;;;;;;;;;;-1.40;99.90;;;;;;5009914;28;19929;-78
2022/12/17 14:35:54;;;;;;;;;;;-1.40;99.90;;;;;;4991045;28;19934;-77
2022/12/17 14:38:23;;;;;;;;;;;-1.50;99.90;;;;;;5009194;28;20386;-78
2022/12/17 14:40:50;;;;;;;;;;;-1.50;99.90;;;;;;5005442;28;19925;-78
2022/12/17 14:43:21;;;;;;;;;;;-1.50;99.90;;;;;;5012364;28;20311;-78
2022/12/17 14:51:20;;;;;;;;;;;-1.60;99.90;;;;;;4990880;28;20395;-78
2022/12/17 14:53:49;;;;;;;;;;;-1.60;99.90;;;;;;4996736;28;20436;-77
2022/12/17 14:56:22;;;;;;;;;;;-1.70;99.90;;;;;;4996251;28;19933;-77
2022/12/17 14:58:49;;;;;;;;;;;-1.70;99.90;;;;;;4995237;28;19955;-78
2022/12/17 15:01:16;;;;;;;;;;;-1.80;99.90;;;;;;4991842;28;19930;-78
2022/12/17 15:03:45;;;;;;;;;;;-1.80;99.90;;;;;;4995705;28;19933;-79
2022/12/17 15:06:18;;;;;;;;;;;-1.90;99.90;;;;;;5014195;28;19931;-80
2022/12/17 15:08:46;;;;;;;;;;;-1.90;99.90;;;;;;4998402;28;19932;-77
2022/12/17 15:11:15;;;;;;;;;;;-2.00;99.90;;;;;;5009316;28;19926;-79
2022/12/17 15:13:42;;;;;;;;;;;-2.00;99.90;;;;;;4987308;28;19952;-78
2022/12/17 15:16:10;;;;;;;;;;;-2.10;99.90;;;;;;4995942;28;19984;-78
2022/12/17 15:18:37;;;;;;;;;;;-2.10;99.90;;;;;;4987411;28;19976;-80
2022/12/17 15:21:04;;;;;;;;;;;-2.20;99.90;;;;;;4999727;28;20422;-80
2022/12/17 15:23:32;;;;;;;;;;;-2.20;99.90;;;;;;5014485;28;19925;-79
2022/12/17 15:25:59;;;;;;;;;;;-2.30;99.90;;;;;;5016167;28;20414;-80
2022/12/17 15:28:28;;;;;;;;;;;-2.40;99.90;;;;;;5016140;28;19953;-79
2022/12/17 15:30:55;;;;;;;;;;;-2.40;99.90;;;;;;5008235;28;20272;-77
2022/12/17 15:33:23;;;;;;;;;;;-2.40;99.90;;;;;;5001633;28;20025;-78
2022/12/17 15:35:50;;;;;;;;;;;-2.40;99.90;;;;;;5001718;28;20485;-78
2022/12/17 15:38:17;;;;;;;;;;;-2.50;99.90;;;;;;4987008;28;19945;-80
2022/12/17 15:40:44;;;;;;;;;;;-2.50;99.90;;;;;;4991941;28;19984;-78
2022/12/17 15:43:11;;;;;;;;;;;-2.60;99.90;;;;;;5001859;28;19992;-78
2022/12/17 15:45:40;;;;;;;;;;;-2.70;99.90;;;;;;5005353;28;19925;-78
2022/12/17 15:48:08;;;;;;;;;;;-1.90;99.90;;;;;;5017949;28;20026;-79
2022/12/17 15:50:35;;;;;;;;;;;-2.70;99.90;;;;;;5018731;28;19985;-79
2022/12/17 15:53:03;;;;;;;;;;;-2.80;99.90;;;;;;4999948;28;19929;-79
2022/12/17 15:55:30;;;;;;;;;;;-2.90;99.90;;;;;;5017197;28;20366;-81
2022/12/17 15:57:57;;;;;;;;;;;-3.10;99.90;;;;;;4997659;28;19929;-80
2022/12/17 16:00:24;;;;;;;;;;;-3.20;99.90;;;;;;4998356;28;19953;-79
2022/12/17 16:02:53;;;;;;;;;;;-3.30;99.90;;;;;;4998961;28;19929;-79
2022/12/17 16:05:22;;;;;;;;;;;-3.40;99.90;;;;;;4996674;28;19936;-78
2022/12/17 16:07:51;;;;;;;;;;;-3.50;99.90;;;;;;4998446;28;19979;-78
2022/12/17 16:10:18;;;;;;;;;;;-3.50;99.90;;;;;;5020165;28;19932;-79
2022/12/17 16:12:46;;;;;;;;;;;-3.50;99.90;;;;;;5000770;28;19932;-78
2022/12/17 16:15:14;;;;;;;;;;;-3.50;99.90;;;;;;5012714;28;19996;-79
2022/12/17 16:17:41;;;;;;;;;;;-3.50;99.90;;;;;;5012418;28;19964;-77
2022/12/17 16:20:10;;;;;;;;;;;-3.50;99.90;;;;;;4996352;28;19932;-78
2022/12/17 16:22:38;;;;;;;;;;;-3.60;99.90;;;;;;5014723;28;19929;-79
2022/12/17 16:25:05;;;;;;;;;;;-3.60;99.90;;;;;;5001418;28;19936;-78
2022/12/17 16:27:32;;;;;;;;;;;-3.60;99.90;;;;;;5010071;28;19932;-78
2022/12/17 16:30:00;;;;;;;;;;;-3.70;99.90;;;;;;5001579;28;19929;-77
2022/12/17 16:32:27;;;;;;;;;;;-3.70;99.90;;;;;;4992025;28;19980;-77
2022/12/17 16:34:54;;;;;;;;;;;-3.80;99.90;;;;;;4990439;28;20606;-77
2022/12/17 16:37:22;;;;;;;;;;;-3.80;99.90;;;;;;5012790;28;19992;-77
2022/12/17 16:39:50;;;;;;;;;;;-3.90;99.90;;;;;;4994167;28;19941;-77
2022/12/17 16:42:17;;;;;;;;;;;-3.90;99.90;;;;;;4995064;28;19925;-77
2022/12/17 16:44:43;;;;;;;;;;;-3.90;99.90;;;;;;5011773;28;20417;-77
2022/12/17 16:47:10;;;;;;;;;;;-4.00;99.90;;;;;;5010858;28;19930;-77
2022/12/17 16:49:37;;;;;;;;;;;-4.00;99.90;;;;;;5011429;28;19929;-77
2022/12/17 16:52:04;;;;;;;;;;;-4.00;99.90;;;;;;4993115;28;19926;-78
2022/12/17 16:54:33;;;;;;;;;;;-4.10;99.90;;;;;;4994099;28;20441;-77
2022/12/17 16:57:00;;;;;;;;;;;-4.10;99.90;;;;;;5001563;28;20402;-77
2022/12/17 16:59:27;;;;;;;;;;;-4.20;99.90;;;;;;5011924;28;19931;-78
2022/12/17 17:01:55;;;;;;;;;;;-4.30;99.90;;;;;;5014278;28;19937;-77
2022/12/17 17:04:23;;;;;;;;;;;-4.30;99.90;;;;;;4997391;28;19926;-77
2022/12/17 17:06:51;;;;;;;;;;;-4.40;99.90;;;;;;4995448;28;19934;-77
2022/12/17 17:09:18;;;;;;;;;;;-4.40;99.90;;;;;;4994966;28;20039;-76
2022/12/17 17:11:47;;;;;;;;;;;-4.40;99.90;;;;;;4994324;28;19984;-77
2022/12/17 17:14:14;;;;;;;;;;;-4.40;99.90;;;;;;4995829;28;20466;-77
2022/12/17 17:16:41;;;;;;;;;;;-4.30;99.90;;;;;;5012841;28;19937;-78
2022/12/17 17:19:08;;;;;;;;;;;-4.40;99.90;;;;;;4996405;28;19936;-78
2022/12/17 17:21:35;;;;;;;;;;;-4.40;99.90;;;;;;5011984;28;19939;-78
2022/12/17 17:24:05;;;;;;;;;;;-4.30;99.90;;;;;;5014630;28;19935;-79
2022/12/17 17:26:33;;;;;;;;;;;-4.40;99.90;;;;;;5012694;28;19930;-78
2022/12/17 17:29:02;;;;;;;;;;;-5.90;99.90;;;;;;5012475;28;19934;-79
2022/12/17 17:31:30;;;;;;;;;;;-4.40;99.90;;;;;;5013490;28;19929;-78
2022/12/17 17:33:57;;;;;;;;;;;-4.40;99.90;;;;;;5014303;28;20417;-79
2022/12/17 17:36:24;;;;;;;;;;;-4.40;99.90;;;;;;5014484;28;19929;-78
2022/12/17 17:38:52;;;;;;;;;;;-4.40;99.90;;;;;;5014530;28;19926;-78
2022/12/17 17:41:20;;;;;;;;;;;-4.40;99.90;;;;;;5013773;28;19964;-78
2022/12/17 17:43:47;;;;;;;;;;;-4.40;99.90;;;;;;4997455;28;19929;-78
2022/12/17 17:46:16;;;;;;;;;;;-4.40;99.90;;;;;;4996830;28;19930;-78
2022/12/17 17:48:44;;;;;;;;;;;-3.20;99.90;;;;;;4996496;28;19929;-77
2022/12/17 17:51:13;;;;;;;;;;;-4.40;99.90;;;;;;4997010;28;19984;-78
2022/12/17 17:53:41;;;;;;;;;;;-4.40;99.90;;;;;;4996712;28;19929;-78
2022/12/17 17:56:13;;;;;;;;;;;-4.50;99.90;;;;;;5000820;28;19925;-78
2022/12/17 17:58:40;;;;;;;;;;;-4.50;99.90;;;;;;4987738;28;19933;-78
2022/12/17 18:01:08;;;;;;;;;;;-4.50;99.90;;;;;;5013880;28;19929;-78
2022/12/17 18:03:37;;;;;;;;;;;-4.50;99.90;;;;;;5016409;28;20024;-79
2022/12/17 18:06:05;;;;;;;;;;;-4.60;99.90;;;;;;5002918;28;19933;-79
2022/12/17 18:08:33;;;;;;;;;;;-4.60;99.90;;;;;;5019243;28;19999;-79
2022/12/17 18:11:00;;;;;;;;;;;-4.70;99.90;;;;;;5018429;28;19997;-79
2022/12/17 18:16:12;;;;;;;;;;;-4.70;99.90;;;;;;4985600;28;19948;-79
2022/12/17 18:18:40;;;;;;;;;;;-4.80;99.90;;;;;;5000948;28;19940;-79
2022/12/17 18:21:08;;;;;;;;;;;-4.80;99.90;;;;;;4994295;28;20306;-79
2022/12/17 18:23:35;;;;;;;;;;;-4.80;99.90;;;;;;5000583;28;19936;-77
2022/12/17 18:26:07;;;;;;;;;;;-4.80;99.90;;;;;;5019508;28;19932;-79
2022/12/17 18:28:34;;;;;;;;;;;-4.80;99.90;;;;;;4997134;28;19929;-79
2022/12/17 18:31:05;;;;;;;;;;;-4.80;99.90;;;;;;5006742;28;20446;-79
2022/12/17 18:33:32;;;;;;;;;;;-4.80;99.90;;;;;;5018893;28;19925;-79
2022/12/17 18:36:01;;;;;;;;;;;-4.90;99.90;;;;;;5001090;28;19996;-79
2022/12/17 18:38:28;;;;;;;;;;;-4.90;99.90;;;;;;5015289;28;19925;-79
2022/12/17 18:40:55;;;;;;;;;;;-4.90;99.90;;;;;;5014597;28;19953;-77
2022/12/17 18:43:23;;;;;;;;;;;-5.00;99.90;;;;;;4995272;28;19929;-77
2022/12/17 18:45:51;;;;;;;;;;;-4.90;99.90;;;;;;4995225;28;19985;-80
2022/12/17 18:48:18;;;;;;;;;;;-5.00;99.90;;;;;;4996852;28;19930;-78
2022/12/17 18:50:45;;;;;;;;;;;-5.00;99.90;;;;;;4992731;28;19929;-79
2022/12/17 18:53:13;;;;;;;;;;;-5.00;99.90;;;;;;4998895;28;19937;-78
2022/12/17 18:55:43;;;;;;;;;;;-5.00;99.90;;;;;;5002914;28;20362;-78
2022/12/17 18:58:10;;;;;;;;;;;-5.00;99.90;;;;;;5003053;28;19940;-78
2022/12/17 19:00:38;;;;;;;;;;;-5.00;99.90;;;;;;5000104;28;20002;-78
2022/12/17 19:03:05;;;;;;;;;;;-5.00;99.90;;;;;;4999764;28;19972;-78
2022/12/17 19:05:32;;;;;;;;;;;-5.00;99.90;;;;;;5004244;28;19972;-78
2022/12/17 19:07:59;;;;;;;;;;;-5.00;99.90;;;;;;5016368;28;19971;-78
2022/12/17 19:10:33;;;;;;;;;;;-5.10;99.90;;;;;;5014158;28;19929;-78
2022/12/17 19:13:01;;;;;;;;;;;-6.30;99.90;;;;;;4993285;28;19933;-78
2022/12/17 19:15:29;;;;;;;;;;;-5.10;99.90;;;;;;4995539;28;19929;-78
2022/12/17 19:17:56;;;;;;;;;;;-5.20;99.90;;;;;;5002561;28;20422;-78
2022/12/17 19:20:23;;;;;;;;;;;-5.20;99.90;;;;;;5001917;28;20437;-78
2022/12/17 19:22:49;;;;;;;;;;;-5.30;99.90;;;;;;4995270;28;20355;-78
2022/12/17 19:25:16;;;;;;;;;;;-5.30;99.90;;;;;;4985237;28;19933;-78
2022/12/17 19:27:45;;;;;;;;;;;-5.30;99.90;;;;;;4994952;28;19925;-78
2022/12/17 19:30:12;;;;;;;;;;;-5.40;99.90;;;;;;4993482;28;19933;-78
2022/12/17 19:32:39;;;;;;;;;;;-5.30;99.90;;;;;;5009258;28;20017;-78
2022/12/17 19:35:06;;;;;;;;;;;-5.40;99.90;;;;;;5018761;28;20237;-78
2022/12/17 19:37:33;;;;;;;;;;;-5.30;99.90;;;;;;5009911;28;19933;-78
2022/12/17 19:40:00;;;;;;;;;;;-5.30;99.90;;;;;;4994000;28;19925;-78
2022/12/17 19:42:28;;;;;;;;;;;-5.30;99.90;;;;;;4993442;28;19926;-78
2022/12/17 19:44:57;;;;;;;;;;;-5.30;99.90;;;;;;5001823;28;19948;-78
2022/12/17 19:47:24;;;;;;;;;;;-5.30;99.90;;;;;;4997427;28;19936;-78
2022/12/17 19:49:51;;;;;;;;;;;-5.30;99.90;;;;;;5013098;28;19992;-79
2022/12/17 19:52:18;;;;;;;;;;;-5.20;99.90;;;;;;5008502;28;19940;-79
2022/12/17 19:54:47;;;;;;;;;;;-5.30;99.90;;;;;;5006310;28;19925;-79
2022/12/17 19:57:15;;;;;;;;;;;-5.30;99.90;;;;;;5002110;28;19983;-79
2022/12/17 19:59:42;;;;;;;;;;;-5.20;99.90;;;;;;4993658;28;19929;-79
2022/12/17 20:02:11;;;;;;;;;;;-5.30;99.90;;;;;;4998324;28;19984;-79
2022/12/17 20:04:38;;;;;;;;;;;-5.30;99.90;;;;;;5017782;28;19933;-78
2022/12/17 20:07:05;;;;;;;;;;;-5.30;99.90;;;;;;5016271;28;19969;-78
2022/12/17 20:09:32;;;;;;;;;;;-5.20;99.90;;;;;;4998493;28;19940;-78
2022/12/17 20:11:59;;;;;;;;;;;-5.20;99.90;;;;;;5009700;28;20570;-79
2022/12/17 20:14:27;;;;;;;;;;;-5.20;99.90;;;;;;5016315;28;19925;-79
2022/12/17 20:16:55;;;;;;;;;;;-5.20;99.90;;;;;;5020158;28;20429;-79
2022/12/17 20:19:24;;;;;;;;;;;-5.20;99.90;;;;;;5019465;28;20001;-78
2022/12/17 20:21:51;;;;;;;;;;;-5.20;99.90;;;;;;5017895;28;20438;-79
2022/12/17 20:24:19;;;;;;;;;;;-5.20;99.90;;;;;;5016655;28;19925;-78
2022/12/17 20:26:46;;;;;;;;;;;-5.30;99.90;;;;;;5001082;28;19925;-79
2022/12/17 20:29:14;;;;;;;;;;;-5.30;99.90;;;;;;5001194;28;19929;-79
2022/12/17 20:31:41;;;;;;;;;;;-5.20;99.90;;;;;;5001547;28;19933;-79
2022/12/17 20:34:09;;;;;;;;;;;-5.20;99.90;;;;;;4994515;28;20393;-80
2022/12/17 20:36:39;;;;;;;;;;;-5.20;99.90;;;;;;5007716;28;20007;-77
2022/12/17 20:39:06;;;;;;;;;;;-5.40;99.90;;;;;;4993300;28;20390;-78
2022/12/17 20:41:35;;;;;;;;;;;-5.30;99.90;;;;;;4989108;28;20601;-78
2022/12/17 20:44:03;;;;;;;;;;;-5.30;99.90;;;;;;5013323;28;20307;-79
2022/12/17 20:46:30;;;;;;;;;;;-5.30;99.90;;;;;;5016377;28;19956;-79
2022/12/17 20:48:59;;;;;;;;;;;-5.40;99.90;;;;;;5003361;28;19925;-79
2022/12/17 20:51:27;;;;;;;;;;;-4.70;99.90;;;;;;4997733;28;20070;-78
2022/12/17 20:53:57;;;;;;;;;;;-5.30;99.90;;;;;;5000383;28;19980;-79
2022/12/17 20:56:25;;;;;;;;;;;-5.30;99.90;;;;;;4998657;28;19929;-79
2022/12/17 20:58:53;;;;;;;;;;;-5.20;99.90;;;;;;5000943;28;19999;-79
2022/12/17 21:01:22;;;;;;;;;;;-5.20;99.90;;;;;;5014197;28;19941;-78
2022/12/17 21:03:50;;;;;;;;;;;-5.20;99.90;;;;;;5010731;28;19936;-78
2022/12/17 21:06:18;;;;;;;;;;;-5.10;99.90;;;;;;5000656;28;19929;-79
2022/12/17 21:08:47;;;;;;;;;;;-5.00;99.90;;;;;;5000007;28;19947;-78
2022/12/17 21:11:15;;;;;;;;;;;-5.00;99.90;;;;;;5012088;28;19991;-78
2022/12/17 21:13:43;;;;;;;;;;;-4.90;99.90;;;;;;5020202;28;19937;-79
2022/12/17 21:16:12;;;;;;;;;;;-4.80;99.90;;;;;;5017081;28;19949;-78
2022/12/17 21:18:39;;;;;;;;;;;-4.80;99.90;;;;;;4995652;28;19929;-78
2022/12/17 21:21:08;;;;;;;;;;;-4.70;99.90;;;;;;4984608;28;19932;-78
2022/12/17 21:23:35;;;;;;;;;;;-4.70;99.90;;;;;;4994187;28;20379;-79
2022/12/17 21:26:03;;;;;;;;;;;-4.60;99.90;;;;;;5010704;28;19940;-78
2022/12/17 21:28:32;;;;;;;;;;;-4.60;99.90;;;;;;4995865;28;20383;-77
2022/12/17 21:30:59;;;;;;;;;;;-4.60;99.90;;;;;;4978826;28;19930;-78
2022/12/17 21:33:26;;;;;;;;;;;-4.60;99.90;;;;;;4993610;28;19940;-78
2022/12/17 21:35:58;;;;;;;;;;;-4.60;99.90;;;;;;5000913;28;19925;-78
2022/12/17 21:38:25;;;;;;;;;;;-4.70;99.90;;;;;;5000252;28;19953;-79
2022/12/17 21:40:52;;;;;;;;;;;-4.70;99.90;;;;;;5000115;28;20131;-79
2022/12/17 21:43:19;;;;;;;;;;;-4.60;99.90;;;;;;5015511;28;19929;-79
2022/12/17 21:45:48;;;;;;;;;;;-4.60;99.90;;;;;;4994753;28;19956;-79
2022/12/17 21:48:15;;;;;;;;;;;-4.60;99.90;;;;;;5003599;28;19925;-79
2022/12/17 21:50:43;;;;;;;;;;;-4.60;99.90;;;;;;4993851;28;20374;-78
2022/12/17 21:53:11;;;;;;;;;;;-4.60;99.90;;;;;;4998494;28;19936;-79
2022/12/17 21:55:38;;;;;;;;;;;-4.60;99.90;;;;;;5002353;28;19933;-79
2022/12/17 21:58:07;;;;;;;;;;;-4.60;99.90;;;;;;5000636;28;19926;-77
2022/12/17 22:00:35;;;;;;;;;;;-4.50;99.90;;;;;;5025273;28;19929;-78
2022/12/17 22:03:06;;;;;;;;;;;-4.50;99.90;;;;;;5003860;28;19957;-78
2022/12/17 22:05:35;;;;;;;;;;;-4.50;99.90;;;;;;5000275;28;19940;-79
2022/12/17 22:08:02;;;;;;;;;;;-4.40;99.90;;;;;;4994185;28;19958;-78
2022/12/17 22:10:29;;;;;;;;;;;-4.30;99.90;;;;;;5010896;28;19929;-78
2022/12/17 22:15:41;;;;;;;;;;;-4.10;99.90;;;;;;5011656;28;20566;-78
2022/12/17 22:18:10;;;;;;;;;;;-4.00;99.90;;;;;;4994419;28;19937;-78
2022/12/17 22:20:37;;;;;;;;;;;-3.90;99.90;;;;;;5009335;28;19929;-78
2022/12/17 22:23:05;;;;;;;;;;;-3.90;99.90;;;;;;4995119;28;20022;-78
2022/12/17 22:25:32;;;;;;;;;;;-3.80;99.90;;;;;;4985594;28;19929;-78
2022/12/17 22:27:59;;;;;;;;;;;-3.70;99.90;;;;;;5009118;28;20012;-78
2022/12/17 22:33:12;;;;;;;;;;;-3.50;99.90;;;;;;4992711;28;20079;-77
2022/12/17 22:35:41;;;;;;;;;;;-3.50;99.90;;;;;;5003020;28;19936;-77
2022/12/17 22:38:08;;;;;;;;;;;-3.40;99.90;;;;;;4992323;28;20004;-78
2022/12/17 22:40:36;;;;;;;;;;;-3.40;99.90;;;;;;4990747;28;19934;-78
2022/12/17 22:45:48;;;;;;;;;;;-3.40;99.90;;;;;;4994271;28;20012;-79
2022/12/17 22:48:17;;;;;;;;;;;-3.40;99.90;;;;;;4991969;28;20476;-79
2022/12/17 22:50:45;;;;;;;;;;;-4.70;99.90;;;;;;4984691;28;20000;-79
2022/12/17 22:53:12;;;;;;;;;;;-3.30;99.90;;;;;;5003332;28;19926;-79
2022/12/17 22:55:39;;;;;;;;;;;-3.30;99.90;;;;;;4992376;28;19930;-79
2022/12/17 22:58:06;;;;;;;;;;;-3.30;99.90;;;;;;5011350;28;19937;-79
2022/12/17 23:00:34;;;;;;;;;;;-3.30;99.90;;;;;;4992482;28;20016;-79
2022/12/17 23:03:01;;;;;;;;;;;-3.30;99.90;;;;;;5010399;28;19944;-79
2022/12/17 23:05:30;;;;;;;;;;;-3.30;99.90;;;;;;4992610;28;19925;-79
2022/12/17 23:07:57;;;;;;;;;;;-3.30;99.90;;;;;;5008498;28;19937;-79
2022/12/17 23:10:24;;;;;;;;;;;-3.30;99.90;;;;;;5006863;28;19933;-79
2022/12/17 23:12:51;;;;;;;;;;;-3.40;99.90;;;;;;5009827;28;19937;-79
2022/12/17 23:15:20;;;;;;;;;;;-3.40;99.90;;;;;;5010133;28;19925;-81
2022/12/17 23:17:47;;;;;;;;;;;-3.40;99.90;;;;;;4999177;28;19992;-82
2022/12/17 23:20:15;;;;;;;;;;;-3.50;99.90;;;;;;5020124;28;19937;-82
2022/12/17 23:22:43;;;;;;;;;;;-3.50;99.90;;;;;;4995251;28;20008;-81
2022/12/17 23:25:10;;;;;;;;;;;-3.60;99.90;;;;;;5001624;28;19925;-81
2022/12/17 23:27:38;;;;;;;;;;;-3.60;99.90;;;;;;4997895;28;19933;-79
2022/12/17 23:30:05;;;;;;;;;;;-3.60;99.90;;;;;;5011601;28;19936;-79
2022/12/17 23:32:33;;;;;;;;;;;-3.60;99.90;;;;;;5000841;28;20023;-81
2022/12/17 23:35:00;;;;;;;;;;;-3.60;99.90;;;;;;5016725;28;19929;-81
2022/12/17 23:37:27;;;;;;;;;;;-3.70;99.90;;;;;;4997733;28;20331;-81
2022/12/17 23:39:55;;;;;;;;;;;-3.70;99.90;;;;;;5017125;28;19949;-82
2022/12/17 23:42:22;;;;;;;;;;;-3.70;99.90;;;;;;5015251;28;19929;-80
2022/12/17 23:44:49;;;;;;;;;;;-3.70;99.90;;;;;;5015667;28;19934;-77
2022/12/17 23:47:16;;;;;;;;;;;-3.70;99.90;;;;;;5016082;28;19952;-79
2022/12/17 23:49:43;;;;;;;;;;;-3.70;99.90;;;;;;5015032;28;19929;-79
2022/12/17 23:52:16;;;;;;;;;;;-3.60;99.90;;;;;;4992105;28;20000;-80
2022/12/17 23:54:43;;;;;;;;;;;-3.70;99.90;;;;;;5001537;28;19933;-79
2022/12/17 23:57:11;;;;;;;;;;;-3.60;99.90;;;;;;5017890;28;19929;-79
2022/12/17 23:59:38;;;;;;;;;;;-3.60;99.90;;;;;;5011966;28;19929;-78
